createdAt,value
2023-07-23T00:00:32.039Z,84.38
2023-07-23T00:03:20.608Z,84.15
2023-07-23T00:05:51.839Z,84.39
2023-07-23T00:08:20.164Z,84.33
2023-07-23T00:10:49.787Z,82.79
2023-07-23T00:13:18.329Z,83.56
2023-07-23T00:15:46.999Z,83.47
2023-07-23T00:18:15.682Z,82.81
2023-07-23T00:20:44.164Z,82.76
2023-07-23T00:23:12.877Z,82.22
2023-07-23T00:25:41.695Z,82.46
2023-07-23T00:28:10.131Z,82.22
2023-07-23T00:30:38.620Z,83.08
2023-07-23T00:33:07.422Z,83.38
2023-07-23T00:35:36.340Z,82.75
2023-07-23T00:38:05.915Z,83.02
2023-07-23T00:40:34.631Z,83.13
2023-07-23T00:43:03.089Z,82.85
2023-07-23T00:45:31.825Z,83.06
2023-07-23T00:48:01.235Z,83.13
2023-07-23T00:50:30.997Z,83.16
2023-07-23T00:53:00.149Z,83.09
2023-07-23T00:55:28.967Z,83.53
2023-07-23T00:57:57.678Z,83.47
2023-07-23T01:00:26.286Z,83.71
2023-07-23T01:02:55.008Z,83.70
2023-07-23T01:05:24.508Z,83.30
2023-07-23T01:07:53.424Z,83.49
2023-07-23T01:10:22.871Z,83.69
2023-07-23T01:12:53.061Z,83.69
2023-07-23T01:15:21.743Z,83.16
2023-07-23T01:17:52.273Z,83.26
2023-07-23T01:20:21.740Z,83.51
2023-07-23T01:22:50.461Z,83.65
2023-07-23T01:25:19.361Z,82.85
2023-07-23T01:27:47.952Z,83.73
2023-07-23T01:30:16.735Z,83.77
2023-07-23T01:32:47.186Z,83.70
2023-07-23T01:35:17.361Z,84.71
2023-07-23T01:37:50.568Z,86.20
2023-07-23T01:40:19.378Z,82.82
2023-07-23T01:42:47.910Z,82.67
2023-07-23T01:45:17.391Z,80.75
2023-07-23T01:47:46.087Z,79.15
2023-07-23T01:50:14.643Z,81.58
2023-07-23T01:52:43.272Z,82.78
2023-07-23T01:55:12.017Z,83.32
2023-07-23T01:57:40.589Z,84.99
2023-07-23T02:00:10.094Z,85.49
2023-07-23T02:02:44.630Z,86.60
2023-07-23T02:05:15.065Z,86.89
2023-07-23T02:07:43.326Z,86.05
2023-07-23T02:10:15.115Z,85.52
2023-07-23T02:12:43.574Z,85.36
2023-07-23T02:15:13.178Z,85.15
2023-07-23T02:17:41.747Z,84.63
2023-07-23T02:20:11.068Z,84.38
2023-07-23T02:22:39.554Z,84.05
2023-07-23T02:25:08.235Z,83.98
2023-07-23T02:27:38.520Z,83.92
2023-07-23T02:30:07.358Z,82.30
2023-07-23T02:32:35.974Z,85.13
2023-07-23T02:35:05.444Z,87.48
2023-07-23T02:37:33.774Z,89.52
2023-07-23T02:40:01.949Z,92.04
2023-07-23T02:42:30.707Z,93.80
2023-07-23T02:44:59.033Z,93.10
2023-07-23T02:47:27.484Z,94.56
2023-07-23T02:49:56.348Z,95.06
2023-07-23T02:52:25.026Z,96.41
2023-07-23T02:54:53.305Z,95.67
2023-07-23T02:57:22.053Z,95.49
2023-07-23T02:59:50.272Z,97.51
2023-07-23T03:02:18.666Z,98.18
2023-07-23T03:04:46.881Z,98.35
2023-07-23T03:07:15.426Z,97.67
2023-07-23T03:09:43.945Z,97.21
2023-07-23T03:12:12.176Z,96.96
2023-07-23T03:14:41.271Z,96.88
2023-07-23T03:17:09.588Z,96.92
2023-07-23T03:19:38.241Z,97.29
2023-07-23T03:22:06.921Z,97.61
2023-07-23T03:24:36.142Z,97.63
2023-07-23T03:27:04.915Z,97.91
2023-07-23T03:29:34.527Z,97.96
2023-07-23T03:32:03.349Z,98.18
2023-07-23T03:34:32.410Z,98.53
2023-07-23T03:37:00.997Z,98.86
2023-07-23T03:39:29.583Z,98.99
2023-07-23T03:41:58.166Z,98.89
2023-07-23T03:44:26.710Z,99.70
2023-07-23T03:47:05.424Z,100.00
2023-07-23T03:49:33.862Z,100.00
2023-07-23T03:52:03.460Z,100.00
2023-07-23T03:54:31.893Z,100.00
2023-07-23T03:57:00.838Z,100.00
2023-07-23T03:59:36.499Z,100.00
2023-07-23T04:02:05.722Z,100.00
2023-07-23T04:04:34.678Z,100.00
2023-07-23T04:07:03.365Z,100.00
2023-07-23T04:09:32.619Z,100.00
2023-07-23T04:12:01.534Z,100.00
2023-07-23T04:14:30.051Z,100.00
2023-07-23T04:16:58.839Z,99.99
2023-07-23T04:19:27.110Z,99.58
2023-07-23T04:21:57.759Z,99.37
2023-07-23T04:24:26.602Z,99.19
2023-07-23T04:26:55.220Z,99.07
2023-07-23T04:29:24.011Z,98.93
2023-07-23T04:31:52.599Z,99.32
2023-07-23T04:34:20.977Z,99.49
2023-07-23T04:36:53.301Z,99.61
2023-07-23T04:39:21.748Z,99.99
2023-07-23T04:41:50.725Z,99.79
2023-07-23T04:44:19.518Z,99.47
2023-07-23T04:46:48.098Z,99.16
2023-07-23T04:49:16.583Z,99.07
2023-07-23T04:51:44.958Z,98.93
2023-07-23T04:54:13.447Z,98.62
2023-07-23T04:56:42.030Z,98.66
2023-07-23T04:59:10.312Z,98.33
2023-07-23T05:01:38.947Z,97.90
2023-07-23T05:04:07.786Z,97.68
2023-07-23T05:06:36.273Z,97.34
2023-07-23T05:09:05.388Z,97.26
2023-07-23T05:11:33.955Z,97.27
2023-07-23T05:14:02.636Z,96.95
2023-07-23T05:16:31.033Z,97.25
2023-07-23T05:18:59.396Z,96.65
2023-07-23T05:21:28.424Z,96.51
2023-07-23T05:23:57.394Z,96.23
2023-07-23T05:26:25.973Z,95.78
2023-07-23T05:28:54.658Z,95.39
2023-07-23T05:31:23.357Z,95.39
2023-07-23T05:33:51.794Z,95.03
2023-07-23T05:36:20.417Z,95.06
2023-07-23T05:38:49.205Z,94.24
2023-07-23T05:41:17.486Z,94.76
2023-07-23T05:43:46.067Z,94.84
2023-07-23T05:46:15.000Z,94.27
2023-07-23T05:48:43.466Z,93.04
2023-07-23T05:51:12.038Z,90.39
2023-07-23T05:53:40.512Z,89.82
2023-07-23T05:56:08.898Z,89.80
2023-07-23T05:58:37.579Z,88.79
2023-07-23T06:01:06.120Z,90.15
2023-07-23T06:03:48.094Z,91.19
2023-07-23T06:06:23.358Z,89.43
2023-07-23T06:08:51.776Z,88.80
2023-07-23T06:11:20.017Z,89.49
2023-07-23T06:13:48.347Z,88.71
2023-07-23T06:16:17.075Z,89.68
2023-07-23T06:18:45.617Z,89.47
2023-07-23T06:21:14.102Z,88.64
2023-07-23T06:23:42.688Z,86.84
2023-07-23T06:26:12.171Z,83.03
2023-07-23T06:28:40.980Z,81.73
2023-07-23T06:31:09.689Z,80.37
2023-07-23T06:33:38.357Z,79.45
2023-07-23T06:36:06.839Z,82.04
2023-07-23T06:38:35.534Z,76.39
2023-07-23T06:41:04.217Z,76.71
2023-07-23T06:43:32.596Z,77.57
2023-07-23T06:46:01.078Z,74.30
2023-07-23T06:48:30.048Z,73.34
2023-07-23T06:50:59.394Z,73.33
2023-07-23T06:53:28.396Z,72.40
2023-07-23T06:56:04.229Z,71.01
2023-07-23T06:58:34.666Z,68.71
2023-07-23T07:01:03.446Z,68.07
2023-07-23T07:03:31.790Z,69.23
2023-07-23T07:06:01.345Z,71.64
2023-07-23T07:08:29.854Z,72.92
2023-07-23T07:11:03.504Z,72.38
2023-07-23T07:13:32.424Z,74.05
2023-07-23T07:16:00.964Z,75.40
2023-07-23T07:18:29.695Z,74.36
2023-07-23T07:21:01.890Z,72.38
2023-07-23T07:23:51.369Z,70.92
2023-07-23T07:26:19.501Z,68.95
2023-07-23T07:28:47.777Z,69.13
2023-07-23T07:31:16.700Z,67.35
2023-07-23T07:33:45.472Z,66.47
2023-07-23T07:36:13.914Z,65.61
2023-07-23T07:38:43.053Z,63.18
2023-07-23T07:41:11.230Z,62.13
2023-07-23T07:43:39.806Z,63.63
2023-07-23T07:46:09.803Z,63.09
2023-07-23T07:48:39.217Z,62.99
2023-07-23T07:51:08.559Z,63.37
2023-07-23T07:53:37.932Z,60.50
2023-07-23T07:56:07.030Z,61.18
2023-07-23T07:58:35.616Z,60.83
2023-07-23T08:01:04.100Z,64.93
2023-07-23T08:03:33.924Z,62.91
2023-07-23T08:06:02.704Z,66.99
2023-07-23T08:08:32.143Z,62.95
2023-07-23T08:11:02.241Z,62.71
2023-07-23T08:13:31.689Z,63.30
2023-07-23T08:16:01.066Z,64.77
2023-07-23T08:18:29.632Z,65.05
2023-07-23T08:20:58.960Z,62.36
2023-07-23T08:23:28.231Z,60.62
2023-07-23T08:26:00.380Z,59.45
2023-07-23T08:28:32.528Z,63.00
2023-07-23T08:31:01.877Z,60.16
2023-07-23T08:33:31.464Z,60.55
2023-07-23T08:36:01.447Z,61.94
2023-07-23T08:39:11.205Z,61.84
2023-07-23T08:42:03.186Z,59.76
2023-07-23T08:44:49.903Z,61.13
2023-07-23T08:47:22.093Z,61.58
2023-07-23T08:49:53.004Z,61.66
2023-07-23T08:52:21.801Z,62.42
2023-07-23T08:54:50.689Z,63.17
2023-07-23T08:57:19.067Z,61.51
2023-07-23T08:59:47.752Z,62.77
2023-07-23T09:02:16.884Z,65.17
2023-07-23T09:04:45.366Z,61.78
2023-07-23T09:07:14.122Z,61.42
2023-07-23T09:09:42.810Z,61.60
2023-07-23T09:12:10.969Z,63.27
2023-07-23T09:14:46.442Z,61.90
2023-07-23T09:17:18.650Z,61.93
2023-07-23T09:19:47.550Z,63.05
2023-07-23T09:22:18.191Z,60.88
2023-07-23T09:24:46.657Z,62.35
2023-07-23T09:27:15.336Z,63.58
2023-07-23T09:29:43.679Z,62.77
2023-07-23T09:32:25.502Z,62.49
2023-07-23T09:34:55.389Z,63.24
2023-07-23T09:37:23.744Z,64.78
2023-07-23T09:39:55.600Z,66.13
2023-07-23T09:42:24.419Z,66.50
2023-07-23T09:44:53.316Z,65.61
2023-07-23T09:47:25.893Z,65.50
2023-07-23T09:49:54.920Z,66.52
2023-07-23T09:52:24.300Z,66.99
2023-07-23T09:54:54.428Z,67.41
2023-07-23T09:57:23.410Z,66.20
2023-07-23T09:59:52.873Z,67.74
2023-07-23T10:02:23.467Z,67.84
2023-07-23T10:04:52.140Z,65.75
2023-07-23T10:07:21.705Z,63.25
2023-07-23T10:09:51.575Z,63.30
2023-07-23T10:12:21.576Z,63.41
2023-07-23T10:14:51.289Z,63.32
2023-07-23T10:17:20.202Z,63.31
2023-07-23T10:19:48.920Z,61.47
2023-07-23T10:22:17.658Z,61.39
2023-07-23T10:24:52.450Z,62.13
2023-07-23T10:27:21.120Z,62.77
2023-07-23T10:30:08.813Z,63.20
2023-07-23T10:32:37.317Z,61.36
2023-07-23T10:35:05.678Z,59.01
2023-07-23T10:37:34.260Z,59.18
2023-07-23T10:40:04.997Z,58.72
2023-07-23T10:42:39.359Z,55.93
2023-07-23T10:45:23.679Z,55.24
2023-07-23T10:47:53.322Z,54.19
2023-07-23T10:50:22.473Z,52.64
2023-07-23T10:52:51.912Z,51.78
2023-07-23T10:55:34.121Z,49.40
2023-07-23T10:58:05.121Z,47.68
2023-07-23T11:00:33.622Z,47.55
2023-07-23T11:03:02.374Z,46.78
2023-07-23T11:05:39.471Z,46.83
2023-07-23T11:08:21.507Z,46.09
2023-07-23T11:11:01.414Z,47.11
2023-07-23T11:13:35.515Z,47.09
2023-07-23T11:16:04.591Z,45.97
2023-07-23T11:18:34.299Z,45.55
2023-07-23T11:21:07.368Z,43.91
2023-07-23T11:23:37.100Z,44.17
2023-07-23T11:26:05.447Z,44.78
2023-07-23T11:28:36.488Z,44.44
2023-07-23T11:31:05.215Z,45.87
2023-07-23T11:33:34.863Z,44.53
2023-07-23T11:36:03.370Z,43.33
2023-07-23T11:38:34.723Z,43.96
2023-07-23T11:41:04.336Z,43.55
2023-07-23T11:43:34.142Z,42.60
2023-07-23T11:46:02.731Z,42.52
2023-07-23T11:48:32.445Z,44.28
2023-07-23T11:51:40.657Z,41.74
2023-07-23T11:54:11.907Z,41.03
2023-07-23T11:57:20.221Z,41.96
2023-07-23T12:00:28.436Z,42.06
2023-07-23T12:02:58.525Z,40.92
2023-07-23T12:05:26.997Z,40.62
2023-07-23T12:07:55.427Z,40.27
2023-07-23T12:10:26.591Z,42.00
2023-07-23T12:12:55.870Z,44.54
2023-07-23T12:15:24.319Z,40.88
2023-07-23T12:17:54.033Z,42.43
2023-07-23T12:20:25.005Z,41.21
2023-07-23T12:22:54.307Z,43.86
2023-07-23T12:25:24.396Z,44.76
2023-07-23T12:27:52.824Z,47.19
2023-07-23T12:30:21.814Z,51.94
2023-07-23T12:32:50.634Z,41.56
2023-07-23T12:35:19.178Z,44.19
2023-07-23T12:37:47.667Z,41.31
2023-07-23T12:40:18.512Z,42.06
2023-07-23T12:42:46.781Z,43.33
2023-07-23T12:45:15.216Z,45.68
2023-07-23T12:47:43.994Z,58.37
2023-07-23T12:50:12.433Z,61.86
2023-07-23T12:52:41.845Z,65.88
2023-07-23T12:55:10.515Z,58.87
2023-07-23T12:57:39.835Z,47.70
2023-07-23T13:00:08.727Z,47.12
2023-07-23T13:02:37.570Z,48.24
2023-07-23T13:05:06.018Z,44.26
2023-07-23T13:07:34.340Z,45.27
2023-07-23T13:10:04.194Z,43.18
2023-07-23T13:12:32.498Z,43.97
2023-07-23T13:15:00.802Z,42.54
2023-07-23T13:17:29.818Z,44.79
2023-07-23T13:19:58.221Z,48.81
2023-07-23T13:22:26.631Z,46.55
2023-07-23T13:24:55.213Z,44.85
2023-07-23T13:28:04.329Z,58.03
2023-07-23T13:31:15.803Z,47.09
2023-07-23T13:33:44.302Z,58.31
2023-07-23T13:36:12.884Z,43.33
2023-07-23T13:38:41.679Z,49.41
2023-07-23T13:41:10.261Z,48.49
2023-07-23T13:43:38.693Z,47.78
2023-07-23T13:46:07.270Z,47.92
2023-07-23T13:48:35.712Z,52.00
2023-07-23T13:51:44.232Z,49.21
2023-07-23T13:54:12.614Z,41.48
2023-07-23T13:56:41.266Z,40.31
2023-07-23T13:59:09.947Z,42.76
2023-07-23T14:01:38.168Z,39.20
2023-07-23T14:04:06.960Z,42.37
2023-07-23T14:06:35.660Z,39.67
2023-07-23T14:09:41.000Z,41.85
2023-07-23T14:12:33.650Z,38.43
2023-07-23T14:15:02.429Z,43.94
2023-07-23T14:18:10.760Z,47.30
2023-07-23T14:20:39.370Z,43.34
2023-07-23T14:23:08.026Z,46.65
2023-07-23T14:25:36.558Z,44.61
2023-07-23T14:28:05.291Z,46.12
2023-07-23T14:30:33.790Z,44.49
2023-07-23T14:33:02.466Z,42.08
2023-07-23T14:35:31.854Z,42.96
2023-07-23T14:38:00.876Z,41.53
2023-07-23T14:40:29.762Z,40.35
2023-07-23T14:42:58.034Z,42.17
2023-07-23T14:45:26.526Z,43.33
2023-07-23T14:47:55.057Z,39.42
2023-07-23T14:50:23.546Z,37.73
2023-07-23T14:52:52.493Z,39.50
2023-07-23T14:55:22.408Z,38.35
2023-07-23T14:57:50.777Z,50.60
2023-07-23T15:00:19.138Z,47.09
2023-07-23T15:02:47.602Z,40.77
2023-07-23T15:05:16.284Z,42.18
2023-07-23T15:07:45.119Z,40.29
2023-07-23T15:10:13.605Z,40.68
2023-07-23T15:12:42.338Z,43.70
2023-07-23T15:15:11.031Z,42.91
2023-07-23T15:17:39.854Z,40.61
2023-07-23T15:20:08.875Z,38.93
2023-07-23T15:22:37.496Z,37.20
2023-07-23T15:25:06.249Z,43.65
2023-07-23T15:27:36.156Z,36.97
2023-07-23T15:30:07.477Z,36.78
2023-07-23T15:32:35.879Z,40.63
2023-07-23T15:35:04.212Z,42.96
2023-07-23T15:37:32.849Z,40.25
2023-07-23T15:40:01.433Z,37.38
2023-07-23T15:42:29.916Z,37.33
2023-07-23T15:44:58.345Z,39.91
2023-07-23T15:47:26.707Z,40.80
2023-07-23T15:49:55.379Z,38.05
2023-07-23T15:52:24.052Z,40.47
2023-07-23T15:54:52.642Z,38.66
2023-07-23T15:57:21.833Z,36.51
2023-07-23T15:59:50.732Z,37.49
2023-07-23T16:02:19.253Z,37.34
2023-07-23T16:04:47.903Z,38.63
2023-07-23T16:07:16.418Z,36.87
2023-07-23T16:09:44.879Z,44.01
2023-07-23T16:12:13.194Z,39.38
2023-07-23T16:14:41.732Z,32.98
2023-07-23T16:17:10.019Z,33.14
2023-07-23T16:19:38.244Z,31.73
2023-07-23T16:22:06.974Z,31.53
2023-07-23T16:24:35.470Z,32.37
2023-07-23T16:27:04.245Z,35.18
2023-07-23T16:29:32.558Z,36.13
2023-07-23T16:32:01.163Z,33.69
2023-07-23T16:34:29.757Z,33.03
2023-07-23T16:36:59.666Z,47.83
2023-07-23T16:39:28.553Z,38.26
2023-07-23T16:41:56.950Z,36.99
2023-07-23T16:44:27.767Z,37.72
2023-07-23T16:46:55.981Z,44.36
2023-07-23T16:50:04.172Z,39.20
2023-07-23T16:53:12.111Z,36.01
2023-07-23T16:56:20.545Z,35.42
2023-07-23T16:58:56.828Z,36.92
2023-07-23T17:01:37.220Z,39.27
2023-07-23T17:04:12.824Z,39.14
2023-07-23T17:06:52.463Z,39.65
2023-07-23T17:09:25.105Z,38.99
2023-07-23T17:12:03.004Z,39.15
2023-07-23T17:15:16.856Z,39.92
2023-07-23T17:17:45.948Z,42.17
2023-07-23T17:20:14.434Z,43.86
2023-07-23T17:22:42.964Z,45.01
2023-07-23T17:25:11.320Z,44.28
2023-07-23T17:27:39.855Z,44.28
2023-07-23T17:30:14.132Z,44.51
2023-07-23T17:32:43.643Z,44.54
2023-07-23T17:35:12.203Z,45.31
2023-07-23T17:37:40.548Z,46.37
2023-07-23T17:40:09.563Z,46.90
2023-07-23T17:42:37.914Z,47.59
2023-07-23T17:45:26.737Z,48.59
2023-07-23T17:48:14.900Z,49.16
2023-07-23T17:51:03.295Z,49.98
2023-07-23T17:53:51.497Z,51.14
2023-07-23T17:56:39.998Z,51.81
2023-07-23T17:59:53.543Z,52.18
2023-07-23T18:02:41.972Z,52.96
2023-07-23T18:05:30.139Z,54.27
2023-07-23T18:08:18.407Z,54.95
2023-07-23T18:11:06.880Z,56.51
2023-07-23T18:13:35.566Z,56.85
2023-07-23T18:16:04.620Z,57.67
2023-07-23T18:18:32.986Z,58.72
2023-07-23T18:21:01.371Z,59.13
2023-07-23T18:23:31.342Z,59.90
2023-07-23T18:26:05.576Z,60.40
2023-07-23T18:28:35.228Z,61.11
2023-07-23T18:31:07.014Z,61.52
2023-07-23T18:33:38.618Z,61.87
2023-07-23T18:36:06.871Z,61.46
2023-07-23T18:38:35.259Z,62.66
2023-07-23T18:41:43.605Z,63.66
2023-07-23T18:47:44.529Z,65.84
2023-07-23T18:50:12.952Z,66.54
2023-07-23T18:52:41.390Z,66.88
2023-07-23T18:55:10.178Z,67.10
2023-07-23T18:57:38.565Z,67.36
2023-07-23T19:00:07.862Z,67.79
2023-07-23T19:02:56.540Z,68.59
2023-07-23T19:05:44.973Z,68.62
2023-07-23T19:08:33.325Z,68.95
2023-07-23T19:11:21.576Z,69.11
2023-07-23T19:14:10.227Z,69.81
2023-07-23T19:16:58.300Z,69.56
2023-07-23T19:20:12.133Z,70.27
2023-07-23T19:23:02.200Z,70.80
2023-07-23T19:25:52.186Z,70.74
2023-07-23T19:28:40.381Z,71.03
2023-07-23T19:31:09.351Z,71.51
2023-07-23T19:33:37.805Z,71.80
2023-07-23T19:36:06.392Z,71.94
2023-07-23T19:38:34.991Z,72.03
2023-07-23T19:41:03.533Z,72.51
2023-07-23T19:43:31.852Z,73.74
2023-07-23T19:46:00.333Z,73.71
2023-07-23T19:48:29.011Z,74.03
2023-07-23T19:50:57.600Z,74.67
2023-07-23T19:53:27.639Z,75.23
2023-07-23T19:55:56.093Z,75.96
2023-07-23T19:58:24.701Z,76.33
2023-07-23T20:00:53.749Z,75.99
2023-07-23T20:03:22.705Z,75.40
2023-07-23T20:05:53.514Z,75.54
2023-07-23T20:08:21.808Z,75.56
2023-07-23T20:10:50.299Z,75.35
2023-07-23T20:13:18.757Z,75.48
2023-07-23T20:15:48.789Z,75.60
2023-07-23T20:18:17.052Z,75.62
2023-07-23T20:20:48.174Z,75.54
2023-07-23T20:23:17.112Z,76.37
2023-07-23T20:25:54.935Z,76.62
2023-07-23T20:28:23.234Z,76.76
2023-07-23T20:30:51.670Z,76.97
2023-07-23T20:33:20.277Z,77.02
2023-07-23T20:35:48.728Z,77.13
2023-07-23T20:38:17.481Z,76.95
2023-07-23T20:40:46.602Z,77.07
2023-07-23T20:43:15.062Z,77.55
2023-07-23T20:45:43.465Z,78.72
2023-07-23T20:48:12.057Z,78.85
2023-07-23T20:50:40.425Z,79.41
2023-07-23T20:53:09.024Z,79.84
2023-07-23T20:55:37.871Z,80.68
2023-07-23T20:58:06.437Z,80.57
2023-07-23T21:00:35.055Z,81.09
2023-07-23T21:03:04.022Z,82.20
2023-07-23T21:05:32.760Z,82.48
2023-07-23T21:08:01.253Z,82.43
2023-07-23T21:10:30.038Z,82.17
2023-07-23T21:12:58.634Z,82.68
2023-07-23T21:15:26.913Z,82.30
2023-07-23T21:17:55.401Z,81.81
2023-07-23T21:20:24.814Z,80.93
2023-07-23T21:22:53.268Z,79.99
2023-07-23T21:25:21.697Z,80.14
2023-07-23T21:27:50.522Z,80.78
2023-07-23T21:30:19.221Z,81.31
2023-07-23T21:32:47.563Z,81.77
2023-07-23T21:35:18.795Z,82.00
2023-07-23T21:37:47.233Z,82.00
2023-07-23T21:40:15.718Z,81.97
2023-07-23T21:42:44.154Z,82.71
2023-07-23T21:45:12.657Z,83.03
2023-07-23T21:47:41.062Z,83.28
2023-07-23T21:50:10.053Z,83.30
2023-07-23T21:52:38.540Z,83.21
2023-07-23T21:55:07.431Z,83.63
2023-07-23T21:57:36.123Z,83.83
2023-07-23T22:00:05.639Z,84.30
2023-07-23T22:02:35.270Z,84.46
2023-07-23T22:05:05.622Z,84.78
2023-07-23T22:07:34.044Z,84.73
2023-07-23T22:10:02.524Z,85.60
2023-07-23T22:12:31.212Z,85.22
2023-07-23T22:14:59.640Z,85.81
2023-07-23T22:17:28.162Z,86.08
2023-07-23T22:19:57.189Z,86.38
2023-07-23T22:22:25.759Z,86.12
2023-07-23T22:24:54.317Z,85.46
2023-07-23T22:27:22.923Z,85.31
2023-07-23T22:29:51.405Z,85.16
2023-07-23T22:32:19.973Z,85.04
2023-07-23T22:34:48.677Z,85.11
2023-07-23T22:37:17.062Z,84.94
2023-07-23T22:39:45.849Z,84.91
2023-07-23T22:42:14.235Z,85.69
2023-07-23T22:44:47.318Z,85.70
2023-07-23T22:47:15.673Z,85.72
2023-07-23T22:49:43.835Z,85.93
2023-07-23T22:52:14.031Z,85.95
2023-07-23T22:54:42.456Z,86.22
2023-07-23T22:57:10.814Z,87.00
2023-07-23T22:59:44.433Z,87.44
2023-07-23T23:02:13.535Z,87.81
2023-07-23T23:04:41.821Z,88.46
2023-07-23T23:07:10.085Z,88.23
2023-07-23T23:09:38.370Z,87.98
2023-07-23T23:12:06.878Z,88.07
2023-07-23T23:14:35.359Z,88.28
2023-07-23T23:17:04.810Z,88.24
2023-07-23T23:19:33.505Z,88.64
2023-07-23T23:22:01.907Z,88.30
2023-07-23T23:24:30.740Z,88.48
2023-07-23T23:26:58.964Z,88.48
2023-07-23T23:29:27.381Z,88.27
2023-07-23T23:31:56.068Z,88.44
2023-07-23T23:34:24.551Z,88.58
2023-07-23T23:36:53.198Z,88.46
2023-07-23T23:39:21.522Z,88.24
2023-07-23T23:41:50.563Z,88.03
2023-07-23T23:44:18.947Z,88.40
2023-07-23T23:46:47.254Z,88.97
2023-07-23T23:49:16.002Z,89.48
2023-07-23T23:51:44.279Z,89.44
2023-07-23T23:54:12.722Z,89.92
2023-07-23T23:56:48.715Z,89.60
2023-07-23T23:59:24.544Z,89.81
